createdAt,value
2019-05-02T00:01:17.775Z,9.24
2019-05-02T00:03:47.039Z,9.33
2019-05-02T00:06:16.729Z,9.33
2019-05-02T00:08:44.976Z,9.30
2019-05-02T00:11:14.579Z,9.20
2019-05-02T00:13:43.543Z,8.95
2019-05-02T00:16:14.012Z,8.95
2019-05-02T00:18:43.421Z,8.91
2019-05-02T00:21:12.707Z,9.02
2019-05-02T00:23:41.979Z,9.03
2019-05-02T00:26:12.063Z,9.03
2019-05-02T00:28:42.988Z,9.01
2019-05-02T00:31:13.634Z,8.83
2019-05-02T00:33:42.728Z,8.83
2019-05-02T00:36:12.409Z,8.83
2019-05-02T00:38:42.471Z,9.04
2019-05-02T00:41:12.563Z,9.01
2019-05-02T00:43:42.581Z,9.03
2019-05-02T00:46:12.073Z,8.71
2019-05-02T00:48:47.549Z,8.71
2019-05-02T00:51:15.848Z,8.66
2019-05-02T00:53:48.386Z,8.59
2019-05-02T00:56:15.606Z,8.09
2019-05-02T00:58:44.696Z,8.09
2019-05-02T01:01:33.302Z,8.10
2019-05-02T01:04:07.875Z,8.10
2019-05-02T01:06:36.722Z,8.05
2019-05-02T01:09:11.080Z,7.78
2019-05-02T01:11:38.792Z,7.82
2019-05-02T01:14:08.650Z,8.01
2019-05-02T01:16:38.681Z,7.96
2019-05-02T01:19:12.139Z,7.85
2019-05-02T01:21:42.902Z,7.93
2019-05-02T01:24:13.445Z,7.74
2019-05-02T01:27:06.492Z,7.67
2019-05-02T01:29:47.573Z,7.45
2019-05-02T01:32:40.387Z,7.33
2019-05-02T01:35:20.491Z,7.33
2019-05-02T01:38:14.786Z,7.41
2019-05-02T01:40:48.209Z,7.44
2019-05-02T01:43:25.813Z,7.33
2019-05-02T01:45:55.572Z,7.47
2019-05-02T01:48:24.919Z,7.35
2019-05-02T01:50:54.021Z,7.27
2019-05-02T01:53:23.305Z,7.20
2019-05-02T01:55:57.378Z,7.32
2019-05-02T01:58:24.467Z,7.22
2019-05-02T02:00:53.405Z,7.13
2019-05-02T02:03:22.402Z,7.26
2019-05-02T02:05:51.562Z,6.99
2019-05-02T02:08:20.445Z,6.77
2019-05-02T02:10:56.629Z,6.71
2019-05-02T02:13:21.260Z,6.71
2019-05-02T02:15:50.025Z,6.84
2019-05-02T02:18:22.366Z,6.82
2019-05-02T02:21:13.608Z,6.73
2019-05-02T02:23:53.635Z,6.75
2019-05-02T02:26:22.766Z,6.73
2019-05-02T02:28:50.893Z,6.73
2019-05-02T02:31:21.486Z,6.81
2019-05-02T02:33:50.424Z,6.71
2019-05-02T02:36:29.990Z,6.51
2019-05-02T02:38:50.539Z,6.70
2019-05-02T02:41:19.488Z,6.59
2019-05-02T02:44:13.495Z,6.82
2019-05-02T02:46:44.883Z,7.08
2019-05-02T02:49:20.751Z,7.04
2019-05-02T02:51:44.706Z,7.26
2019-05-02T02:54:12.851Z,6.96
2019-05-02T02:56:43.393Z,7.03
2019-05-02T02:59:19.482Z,6.80
2019-05-02T03:01:43.246Z,6.59
2019-05-02T03:04:13.056Z,6.80
2019-05-02T03:06:44.981Z,6.52
2019-05-02T03:09:13.499Z,6.48
2019-05-02T03:12:05.373Z,6.30
2019-05-02T03:14:40.989Z,6.49
2019-05-02T03:17:10.488Z,6.49
2019-05-02T03:19:39.720Z,6.62
2019-05-02T03:22:08.685Z,6.53
2019-05-02T03:24:44.142Z,6.51
2019-05-02T03:27:08.627Z,6.35
2019-05-02T03:29:44.357Z,6.53
2019-05-02T03:32:15.976Z,6.31
2019-05-02T03:34:52.847Z,6.31
2019-05-02T03:37:13.937Z,6.22
2019-05-02T03:39:49.310Z,6.52
2019-05-02T03:42:14.684Z,6.59
2019-05-02T03:44:55.058Z,6.59
2019-05-02T03:47:13.993Z,6.59
2019-05-02T03:49:48.528Z,6.51
2019-05-02T03:52:15.082Z,6.41
2019-05-02T03:54:50.305Z,6.61
2019-05-02T03:57:15.782Z,6.33
2019-05-02T03:59:44.747Z,6.31
2019-05-02T04:02:20.331Z,6.20
2019-05-02T04:04:54.116Z,6.46
2019-05-02T04:07:19.822Z,6.68
2019-05-02T04:09:49.282Z,6.68
2019-05-02T04:12:21.553Z,6.35
2019-05-02T04:14:55.495Z,6.36
2019-05-02T04:17:21.395Z,6.35
2019-05-02T04:19:51.306Z,6.57
2019-05-02T04:22:21.686Z,6.86
2019-05-02T04:24:54.450Z,6.98
2019-05-02T04:27:27.671Z,6.98
2019-05-02T04:29:52.980Z,7.17
2019-05-02T04:32:22.088Z,7.13
2019-05-02T04:34:55.090Z,7.14
2019-05-02T04:37:22.120Z,6.95
2019-05-02T04:39:53.857Z,7.00
2019-05-02T04:42:23.151Z,6.95
2019-05-02T04:45:12.157Z,7.16
2019-05-02T04:47:23.511Z,7.16
2019-05-02T04:49:52.402Z,7.33
2019-05-02T04:52:21.520Z,8.10
2019-05-02T04:54:50.949Z,10.10
2019-05-02T04:57:19.980Z,10.10
2019-05-02T04:59:50.526Z,11.59
2019-05-02T05:02:29.278Z,12.67
2019-05-02T05:04:50.680Z,13.95
2019-05-02T05:07:18.965Z,15.30
2019-05-02T05:09:57.168Z,15.30
2019-05-02T05:12:19.462Z,15.55
2019-05-02T05:14:48.716Z,15.81
2019-05-02T05:17:19.759Z,15.28
2019-05-02T05:19:48.740Z,13.99
2019-05-02T05:22:18.540Z,15.12
2019-05-02T05:24:54.100Z,16.98
2019-05-02T05:27:23.492Z,18.02
2019-05-02T05:29:53.547Z,19.05
2019-05-02T05:32:24.244Z,19.39
2019-05-02T05:34:53.117Z,18.50
2019-05-02T05:37:22.296Z,20.39
2019-05-02T05:39:52.715Z,21.24
2019-05-02T05:42:23.416Z,21.99
2019-05-02T05:44:52.958Z,23.21
2019-05-02T05:47:21.925Z,23.51
2019-05-02T05:49:52.161Z,24.51
2019-05-02T05:52:22.298Z,24.43
2019-05-02T05:54:51.712Z,24.11
2019-05-02T05:57:21.165Z,20.65
2019-05-02T05:59:50.404Z,20.40
2019-05-02T06:02:19.481Z,20.06
2019-05-02T06:04:50.229Z,19.58
2019-05-02T06:07:20.033Z,17.58
2019-05-02T06:09:49.465Z,18.11
2019-05-02T06:12:18.500Z,19.18
2019-05-02T06:14:47.687Z,21.36
2019-05-02T06:17:17.103Z,23.43
2019-05-02T06:19:48.337Z,23.69
2019-05-02T06:22:24.217Z,24.16
2019-05-02T06:24:50.946Z,24.61
2019-05-02T06:27:20.785Z,25.38
2019-05-02T06:29:51.133Z,25.20
2019-05-02T06:32:20.689Z,26.57
2019-05-02T06:34:49.915Z,27.32
2019-05-02T06:37:19.713Z,28.56
2019-05-02T06:39:48.042Z,28.61
2019-05-02T06:42:17.583Z,28.74
2019-05-02T06:44:46.161Z,30.51
2019-05-02T06:47:16.401Z,30.51
2019-05-02T06:49:46.094Z,29.91
2019-05-02T06:52:15.952Z,31.30
2019-05-02T06:54:45.988Z,32.66
2019-05-02T06:57:18.991Z,32.83
2019-05-02T06:59:49.981Z,32.83
2019-05-02T07:02:19.588Z,33.43
2019-05-02T07:04:54.678Z,33.98
2019-05-02T07:07:25.104Z,33.67
2019-05-02T07:09:52.908Z,33.03
2019-05-02T07:12:27.476Z,30.89
2019-05-02T07:15:01.532Z,31.39
2019-05-02T07:17:43.547Z,30.43
2019-05-02T07:20:14.471Z,30.83
2019-05-02T07:22:45.691Z,30.83
2019-05-02T07:25:18.090Z,29.26
2019-05-02T07:27:48.125Z,30.94
2019-05-02T07:30:19.033Z,31.43
2019-05-02T07:32:48.120Z,30.51
2019-05-02T07:35:19.150Z,31.50
2019-05-02T07:37:48.804Z,33.00
2019-05-02T07:40:19.737Z,33.68
2019-05-02T07:42:48.855Z,34.22
2019-05-02T07:45:18.614Z,35.68
2019-05-02T07:47:47.600Z,34.10
2019-05-02T07:50:16.101Z,34.32
2019-05-02T07:52:46.539Z,35.13
2019-05-02T07:55:16.557Z,36.46
2019-05-02T07:57:46.398Z,33.93
2019-05-02T08:00:19.563Z,33.93
2019-05-02T08:02:48.582Z,33.87
2019-05-02T08:05:21.815Z,35.69
2019-05-02T08:07:53.273Z,35.69
2019-05-02T08:10:21.843Z,36.74
2019-05-02T08:12:51.752Z,34.69
2019-05-02T08:15:24.707Z,34.69
2019-05-02T08:17:55.303Z,36.62
2019-05-02T08:20:24.406Z,38.05
2019-05-02T08:22:53.442Z,38.35
2019-05-02T08:25:22.734Z,40.12
2019-05-02T08:27:57.575Z,36.91
2019-05-02T08:30:35.317Z,35.37
2019-05-02T08:33:04.056Z,35.07
2019-05-02T08:35:33.287Z,35.07
2019-05-02T08:38:02.120Z,37.17
2019-05-02T08:40:30.962Z,34.78
2019-05-02T08:43:03.658Z,37.13
2019-05-02T08:45:33.087Z,35.86
2019-05-02T08:48:05.093Z,35.74
2019-05-02T08:50:34.034Z,36.96
2019-05-02T08:53:03.129Z,38.60
2019-05-02T08:55:33.318Z,37.73
2019-05-02T08:58:06.098Z,37.32
2019-05-02T09:00:37.468Z,35.61
2019-05-02T09:03:04.739Z,37.09
2019-05-02T09:05:36.902Z,38.61
2019-05-02T09:08:09.017Z,38.34
2019-05-02T09:10:37.158Z,37.95
2019-05-02T09:13:06.059Z,38.71
2019-05-02T09:15:40.249Z,36.96
2019-05-02T09:20:03.470Z,36.33
2019-05-02T09:22:30.446Z,34.60
2019-05-02T09:25:02.116Z,33.18
2019-05-02T09:27:32.153Z,32.03
2019-05-02T09:30:02.798Z,31.36
2019-05-02T09:32:37.255Z,31.03
2019-05-02T09:35:07.512Z,29.56
2019-05-02T09:37:36.728Z,28.18
2019-05-02T09:40:06.915Z,28.18
2019-05-02T09:42:36.709Z,28.65
2019-05-02T09:45:07.482Z,30.40
2019-05-02T09:47:52.780Z,31.39
2019-05-02T09:50:12.716Z,31.72
2019-05-02T09:52:46.908Z,31.72
2019-05-02T09:55:19.044Z,30.22
2019-05-02T09:57:48.160Z,31.73
2019-05-02T10:00:36.072Z,33.33
2019-05-02T10:03:02.795Z,37.14
2019-05-02T10:05:42.777Z,37.14
2019-05-02T10:10:03.169Z,39.24
2019-05-02T10:12:34.148Z,39.12
2019-05-02T10:15:04.682Z,39.12
2019-05-02T10:17:37.465Z,37.54
2019-05-02T10:20:12.341Z,37.55
2019-05-02T10:22:41.880Z,37.55
2019-05-02T10:25:15.651Z,36.49
2019-05-02T10:27:49.099Z,35.13
2019-05-02T10:30:22.759Z,36.36
2019-05-02T10:32:56.137Z,37.04
2019-05-02T10:35:28.094Z,37.57
2019-05-02T10:37:55.819Z,37.26
2019-05-02T10:40:25.226Z,37.26
2019-05-02T10:42:54.298Z,37.14
2019-05-02T10:45:25.352Z,37.73
2019-05-02T10:47:56.059Z,39.41
2019-05-02T10:50:33.263Z,39.65
2019-05-02T10:53:12.230Z,39.71
2019-05-02T10:55:43.703Z,39.27
2019-05-02T10:58:13.304Z,39.69
2019-05-02T11:00:45.404Z,39.82
2019-05-02T11:03:27.174Z,38.53
2019-05-02T11:06:03.675Z,37.57
2019-05-02T11:08:31.994Z,37.75
2019-05-02T11:11:03.178Z,37.12
2019-05-02T11:14:00.885Z,38.49
2019-05-02T11:16:39.980Z,37.28
2019-05-02T11:19:21.949Z,37.28
2019-05-02T11:21:56.554Z,36.44
2019-05-02T11:24:25.792Z,35.28
2019-05-02T11:26:57.517Z,33.45
2019-05-02T11:29:26.570Z,34.63
2019-05-02T11:31:56.399Z,35.97
2019-05-02T11:34:26.286Z,35.60
2019-05-02T11:36:55.952Z,34.40
2019-05-02T11:39:33.416Z,33.16
2019-05-02T11:42:01.950Z,33.44
2019-05-02T11:44:32.658Z,31.75
2019-05-02T11:47:03.909Z,31.16
2019-05-02T11:49:33.793Z,31.18
2019-05-02T11:52:09.595Z,30.36
2019-05-02T11:54:43.688Z,31.12
2019-05-02T11:57:11.703Z,32.62
2019-05-02T11:59:47.290Z,32.10
2019-05-02T12:02:58.512Z,31.40
2019-05-02T12:05:39.255Z,31.35
2019-05-02T12:08:09.541Z,33.30
2019-05-02T12:10:42.253Z,33.30
2019-05-02T12:13:16.065Z,34.42
2019-05-02T12:15:44.476Z,35.28
2019-05-02T12:18:20.650Z,35.45
2019-05-02T12:20:51.777Z,33.51
2019-05-02T12:23:22.623Z,31.99
2019-05-02T12:25:52.795Z,31.14
2019-05-02T12:28:22.934Z,31.70
2019-05-02T12:30:52.986Z,33.49
2019-05-02T12:33:24.885Z,34.81
2019-05-02T12:35:54.460Z,35.41
2019-05-02T12:38:23.549Z,35.21
2019-05-02T12:40:53.428Z,34.91
2019-05-02T12:43:23.016Z,32.80
2019-05-02T12:45:53.062Z,33.79
2019-05-02T12:48:23.472Z,32.17
2019-05-02T12:50:53.507Z,32.24
2019-05-02T12:53:23.493Z,32.40
2019-05-02T12:55:53.514Z,31.99
2019-05-02T12:58:23.497Z,31.99
2019-05-02T13:00:53.325Z,33.61
2019-05-02T13:03:57.811Z,33.61
2019-05-02T13:06:27.607Z,32.39
2019-05-02T13:08:56.453Z,32.26
2019-05-02T13:11:36.873Z,32.16
2019-05-02T13:14:16.863Z,32.83
2019-05-02T13:16:39.967Z,31.40
2019-05-02T13:19:11.791Z,31.40
2019-05-02T13:22:07.691Z,29.93
2019-05-02T13:24:46.880Z,27.96
2019-05-02T13:27:18.624Z,27.96
2019-05-02T13:32:38.068Z,27.15
2019-05-02T13:35:15.697Z,26.43
2019-05-02T13:37:45.302Z,26.66
2019-05-02T13:40:26.445Z,26.90
2019-05-02T13:42:55.579Z,26.63
2019-05-02T13:45:44.115Z,25.42
2019-05-02T13:48:13.406Z,25.42
2019-05-02T13:50:42.572Z,24.95
2019-05-02T13:53:12.189Z,24.77
2019-05-02T13:55:47.523Z,24.04
2019-05-02T13:58:28.280Z,25.11
2019-05-02T14:00:49.734Z,25.11
2019-05-02T14:03:19.040Z,24.71
2019-05-02T14:05:50.785Z,24.29
2019-05-02T14:08:38.547Z,25.35
2019-05-02T14:11:26.581Z,25.74
2019-05-02T14:13:55.562Z,25.37
2019-05-02T14:16:23.847Z,25.29
2019-05-02T14:18:53.071Z,25.29
2019-05-02T14:21:22.506Z,24.05
2019-05-02T14:23:51.897Z,24.40
2019-05-02T14:26:29.644Z,24.52
2019-05-02T14:28:53.251Z,25.08
2019-05-02T14:31:22.413Z,25.45
2019-05-02T14:34:22.890Z,25.20
2019-05-02T14:36:57.466Z,25.03
2019-05-02T14:39:23.724Z,24.34
2019-05-02T14:41:52.946Z,24.32
2019-05-02T14:44:26.863Z,25.20
2019-05-02T14:46:53.152Z,25.66
2019-05-02T14:49:25.507Z,25.58
2019-05-02T14:51:57.259Z,25.33
2019-05-02T14:54:24.600Z,24.80
2019-05-02T14:57:12.480Z,24.55
2019-05-02T14:59:42.868Z,24.65
2019-05-02T15:02:19.023Z,24.59
2019-05-02T15:04:49.065Z,24.59
2019-05-02T15:07:22.886Z,24.48
2019-05-02T15:09:52.680Z,24.86
2019-05-02T15:12:22.280Z,25.29
2019-05-02T15:14:57.333Z,25.06
2019-05-02T15:17:23.486Z,25.33
2019-05-02T15:19:52.826Z,25.27
2019-05-02T15:22:22.839Z,24.96
2019-05-02T15:24:52.981Z,24.59
2019-05-02T15:27:23.026Z,24.20
2019-05-02T15:29:53.872Z,24.20
2019-05-02T15:32:46.320Z,24.47
2019-05-02T15:35:36.118Z,24.70
2019-05-02T15:38:06.819Z,24.73
2019-05-02T15:40:46.950Z,24.44
2019-05-02T15:43:09.634Z,23.57
2019-05-02T15:45:42.174Z,21.95
2019-05-02T15:48:14.625Z,20.19
2019-05-02T15:50:50.185Z,18.85
2019-05-02T15:53:26.292Z,18.85
2019-05-02T15:55:55.809Z,18.84
2019-05-02T15:58:27.886Z,18.84
2019-05-02T16:01:25.145Z,18.48
2019-05-02T16:05:44.460Z,17.77
2019-05-02T16:08:12.693Z,17.35
2019-05-02T16:10:42.881Z,17.32
2019-05-02T16:13:17.067Z,17.51
2019-05-02T16:15:44.769Z,17.35
2019-05-02T16:18:13.994Z,17.35
2019-05-02T16:21:02.229Z,17.68
2019-05-02T16:23:29.886Z,17.25
2019-05-02T16:25:56.758Z,17.36
2019-05-02T16:28:23.535Z,17.21
2019-05-02T16:30:56.070Z,17.22
2019-05-02T16:33:26.147Z,17.51
2019-05-02T16:35:55.055Z,17.67
2019-05-02T16:38:26.724Z,17.65
2019-05-02T16:40:55.101Z,17.89
2019-05-02T16:43:27.004Z,17.77
2019-05-02T16:45:56.139Z,17.94
2019-05-02T16:48:25.289Z,18.06
2019-05-02T16:50:54.597Z,18.08
2019-05-02T16:53:26.123Z,17.95
2019-05-02T16:55:58.518Z,17.95
2019-05-02T16:58:25.956Z,17.84
2019-05-02T17:00:55.307Z,17.82
2019-05-02T17:03:26.411Z,17.90
2019-05-02T17:05:55.662Z,17.99
2019-05-02T17:08:44.495Z,17.95
2019-05-02T17:11:44.696Z,18.27
2019-05-02T17:14:13.541Z,17.91
2019-05-02T17:16:42.207Z,17.34
2019-05-02T17:19:12.288Z,16.97
2019-05-02T17:21:52.853Z,16.97
2019-05-02T17:24:12.719Z,16.79
2019-05-02T17:26:42.323Z,17.15
2019-05-02T17:29:11.906Z,16.97
2019-05-02T17:31:42.676Z,17.01
2019-05-02T17:34:14.854Z,17.13
2019-05-02T17:36:45.780Z,17.30
2019-05-02T17:39:15.091Z,17.20
2019-05-02T17:41:45.742Z,17.18
2019-05-02T17:44:18.362Z,17.31
2019-05-02T17:46:44.862Z,17.11
2019-05-02T17:49:13.965Z,17.11
2019-05-02T17:52:05.665Z,17.19
2019-05-02T17:54:32.511Z,16.96
2019-05-02T17:57:02.165Z,17.02
2019-05-02T17:59:36.019Z,16.92
2019-05-02T18:02:06.639Z,17.03
2019-05-02T18:04:36.629Z,16.87
2019-05-02T18:07:06.336Z,16.91
2019-05-02T18:09:35.439Z,16.91
2019-05-02T18:12:14.457Z,16.64
2019-05-02T18:14:39.109Z,16.52
2019-05-02T18:17:08.629Z,16.63
2019-05-02T18:19:37.484Z,16.60
2019-05-02T18:22:22.477Z,16.65
2019-05-02T18:24:42.752Z,16.45
2019-05-02T18:27:09.867Z,16.31
2019-05-02T18:29:42.700Z,16.26
2019-05-02T18:32:10.322Z,16.31
2019-05-02T18:34:41.632Z,16.45
2019-05-02T18:37:10.514Z,16.29
2019-05-02T18:39:44.782Z,16.04
2019-05-02T18:42:11.943Z,16.04
2019-05-02T18:44:42.016Z,16.14
2019-05-02T18:47:12.508Z,16.13
2019-05-02T18:49:43.568Z,15.87
2019-05-02T18:52:14.940Z,15.57
2019-05-02T18:54:47.385Z,15.57
2019-05-02T18:57:17.064Z,15.80
2019-05-02T18:59:45.929Z,15.82
2019-05-02T19:02:15.075Z,15.88
2019-05-02T19:04:44.106Z,16.02
2019-05-02T19:07:15.863Z,16.07
2019-05-02T19:09:51.027Z,16.26
2019-05-02T19:12:22.460Z,16.21
2019-05-02T19:17:25.749Z,16.28
2019-05-02T19:19:54.718Z,16.24
2019-05-02T19:22:22.977Z,15.98
2019-05-02T19:24:52.611Z,16.05
2019-05-02T19:27:42.826Z,15.88
2019-05-02T19:33:03.730Z,15.83
2019-05-02T19:35:32.782Z,15.85
2019-05-02T19:38:02.663Z,15.93
2019-05-02T19:40:32.000Z,15.83
2019-05-02T19:43:06.049Z,15.84
2019-05-02T19:45:32.737Z,15.65
2019-05-02T19:48:02.617Z,15.74
2019-05-02T19:50:43.638Z,15.75
2019-05-02T19:53:17.752Z,15.75
2019-05-02T19:55:42.892Z,15.49
2019-05-02T19:58:13.305Z,15.85
2019-05-02T20:00:46.218Z,15.85
2019-05-02T20:03:21.386Z,15.82
2019-05-02T20:05:45.313Z,15.66
2019-05-02T20:08:19.883Z,15.55
2019-05-02T20:10:49.372Z,15.31
2019-05-02T20:13:20.302Z,15.31
2019-05-02T20:15:57.077Z,15.27
2019-05-02T20:18:28.096Z,14.78
2019-05-02T20:21:23.400Z,15.02
2019-05-02T20:23:47.019Z,15.02
2019-05-02T20:26:17.243Z,14.78
2019-05-02T20:28:47.390Z,14.88
2019-05-02T20:31:17.754Z,14.72
2019-05-02T20:33:48.078Z,14.49
2019-05-02T20:36:18.535Z,14.66
2019-05-02T20:38:48.295Z,14.53
2019-05-02T20:41:18.895Z,14.53
2019-05-02T20:43:51.686Z,14.45
2019-05-02T20:46:22.335Z,14.11
2019-05-02T20:48:53.819Z,14.14
2019-05-02T20:51:23.847Z,14.44
2019-05-02T20:53:53.783Z,14.34
2019-05-02T20:56:24.697Z,14.08
2019-05-02T20:58:54.504Z,13.64
2019-05-02T21:01:25.466Z,13.85
2019-05-02T21:03:55.998Z,13.79
2019-05-02T21:06:52.747Z,13.79
2019-05-02T21:09:46.609Z,13.31
2019-05-02T21:12:17.601Z,13.44
2019-05-02T21:14:45.944Z,12.93
2019-05-02T21:17:14.968Z,12.93
2019-05-02T21:19:44.006Z,12.87
2019-05-02T21:22:22.757Z,12.90
2019-05-02T21:24:52.867Z,13.33
2019-05-02T21:27:22.068Z,13.34
2019-05-02T21:29:52.218Z,13.17
2019-05-02T21:32:22.932Z,13.20
2019-05-02T21:34:52.155Z,13.42
2019-05-02T21:37:22.623Z,13.30
2019-05-02T21:39:52.041Z,13.49
2019-05-02T21:42:22.576Z,12.91
2019-05-02T21:44:52.011Z,12.99
2019-05-02T21:47:22.502Z,13.18
2019-05-02T21:50:21.771Z,13.04
2019-05-02T21:53:22.065Z,13.02
2019-05-02T21:56:14.273Z,13.35
2019-05-02T21:59:02.970Z,13.29
2019-05-02T22:01:44.919Z,13.11
2019-05-02T22:04:15.148Z,13.09
2019-05-02T22:06:47.683Z,12.99
2019-05-02T22:09:19.047Z,13.10
2019-05-02T22:11:48.977Z,13.09
2019-05-02T22:14:18.483Z,13.09
2019-05-02T22:16:47.438Z,13.09
2019-05-02T22:19:18.081Z,13.00
2019-05-02T22:21:49.595Z,13.16
2019-05-02T22:24:19.984Z,13.09
2019-05-02T22:26:52.428Z,13.10
2019-05-02T22:29:21.959Z,13.01
2019-05-02T22:31:52.158Z,13.01
2019-05-02T22:34:22.744Z,12.96
2019-05-02T22:36:53.886Z,13.18
2019-05-02T22:39:57.764Z,12.89
2019-05-02T22:42:28.918Z,13.03
2019-05-02T22:44:58.428Z,12.42
2019-05-02T22:47:27.422Z,12.31
2019-05-02T22:49:56.754Z,12.43
2019-05-02T22:52:26.715Z,12.75
2019-05-02T22:54:56.471Z,12.47
2019-05-02T22:57:27.496Z,12.24
2019-05-02T22:59:57.028Z,12.47
2019-05-02T23:02:25.997Z,12.47
2019-05-02T23:04:55.085Z,12.53
2019-05-02T23:07:29.966Z,12.40
2019-05-02T23:09:59.224Z,12.31
2019-05-02T23:12:28.593Z,12.03
2019-05-02T23:14:57.722Z,11.80
2019-05-02T23:17:26.709Z,11.80
2019-05-02T23:19:54.957Z,12.16
2019-05-02T23:22:24.569Z,12.29
2019-05-02T23:25:25.819Z,12.48
2019-05-02T23:27:58.599Z,12.74
2019-05-02T23:30:26.898Z,12.98
2019-05-02T23:32:55.952Z,12.98
2019-05-02T23:35:25.482Z,12.72
2019-05-02T23:37:58.780Z,12.77
2019-05-02T23:40:28.305Z,12.97
2019-05-02T23:42:57.541Z,12.81
2019-05-02T23:45:27.144Z,12.81
2019-05-02T23:47:56.943Z,12.81
2019-05-02T23:50:26.515Z,12.81
2019-05-02T23:52:55.606Z,12.76
2019-05-02T23:55:25.723Z,12.82
2019-05-02T23:57:54.780Z,12.82
